Terminal Aerodrome Forecast
Issued by NWS

Home | Current Version | Previous Version | Graphics & Text | Print | Product List | Glossary On
Versions: 1 2 3 4 5 6 7 8 9 10 11 12 13 14 15 16 17
094
FTUS41 KCLE 231138
TAFFDY
TAF
KFDY 231138Z 2312/2412 VRB03KT P6SM SCT025 BKN060
      TEMPO 2313/2316 BKN025 OVC060
     FM231600 27005KT P6SM VCTS SCT030CB BKN060
     FM232100 28009KT P6SM SCT030 BKN120 PROB30 2321/2323 5SM -TSRA
      BKN030CB=

USA.gov is the U.S. government's official web portal to all federal, state and local government web resources and services.